Chirpan, Bulgaria

6:56 AM EET on February 10, 2016 (GMT +0200)
Manole | | Change Station
CLOSE
Current Station
Personal Weather Station
Location: Manole, Plovdiv
Elevation: 509 ft
Nearby Weather Stations

Elev 509 ft 42.18 °N, 24.92 °E | Updated 2 seconds ago

Overcast
Overcast
33.1 °F
Feels Like 33 °F
N
0.5
Wind Variable Wind from SSE
Gusts 0.5 mph

Today
High -- | Low -- °F
--% Chance of Precip.
Yesterday
High -- | Low -- °F
Precip. -- in
Pressure 29.86 in
Visibility 1.7 miles
Clouds Overcast 400 ft
Windchill 33 °F
Dew Point 29 °F
Humidity 85%
Rainfall 0.00 in
Snow Depth Not available.
7:22 AM 5:43 PM
Waxing Crescent, 3% visible
METAR LBPD 100430Z AUTO 19003KT 2800 BR OVC004/// 01/01 Q1011
Pressure 29.86 in
Visibility 1.7 miles
Clouds Overcast 400 ft
Windchill 33 °F
Dew Point 29 °F
Humidity 85%
Rainfall 0.00 in
Snow Depth Not available.
7:22 AM 5:43 PM
Waxing Crescent, 3% visible
METAR LBPD 100430Z AUTO 19003KT 2800 BR OVC004/// 01/01 Q1011

10-Day Weather Forecast

Almanac

Astronomy

Feb. 10, 2016 Rise Set
Actual Time
Civil Twilight
Nautical Twilight
Astronomical Twilight
Moon
Length of Visible Light
Length of Day
Tomorrow will be .
, % of the Moon is Illuminated

Today's Extremes

Country Highs Country Lows

Community

WunderPhotos

Upload Photos

1,891,810 photos uploaded!

WunderBlog® & News

Nearby

Air Quality

  Air Quality AQ Index Pollutant
Not available.

Snow Depth

Station Depth Elevation

Earthquake Activity

City Distance Mag. Time & Date
Minimum magnitude displayed is 2.5.

Coastal Water Temperatures

Place Temperature

Stations

Nearby Weather Stations

Station Location Temp. Windchill Dew Point Humidity Wind Precip. Elev Updated Type